Terminal Aerodrome Forecast
Issued by NWS

Home | Current Version | Previous Version | Text Only | Print | Product List | Glossary On
Versions: 1 2 3 4 5 6 7 8 9 10 11 12 13 14 15 16 17 18 19 20 21 22 23 24 25 26 27 28 29 30 31 32 33 34 35 36 37 38 39 40 41
000
FTAK31 PANC 030426 AAD
TAFACD
TAF AMD
PACD 030426Z 0304/0324 14009KT 3SM -RA BKN005
      TEMPO 0304/0306 BKN015
     FM030600 11007KT 4SM -SHRA BR SCT005 OVC010
     FM030700 25010KT 2SM -RA BR BKN005=

USA.gov is the U.S. government's official web portal to all federal, state and local government web resources and services.